Time;durP1;ratioP1;P1;durP2;ratioP2;P2;SDS_P1;SDS_P2;PMS_P1;PMS_P2;Temp;Humidity;BMP_temperature;BMP_pressure;BME280_temperature;BME280_humidity;BME280_pressure;Samples;Min_cycle;Max_cycle;Signal;HPM_P1;HPM_P2
2022/03/31 00:08:53;;;;;;;6.10;2.60;;;10.50;67.40;;;;;;20666603;28;20156;-57
2022/03/31 00:18:55;;;;;;;5.10;2.63;;;10.50;68.00;;;;;;20663987;28;20046;-56
2022/03/31 00:28:57;;;;;;;5.10;2.17;;;10.40;68.70;;;;;;20664892;28;20058;-57
2022/03/31 00:49:20;;;;;;;6.88;2.63;;;10.30;68.80;;;;;;20668462;28;20054;-58
2022/03/31 00:59:24;;;;;;;4.90;2.20;;;10.00;69.50;;;;;;20680025;28;20054;-59
2022/03/31 01:09:27;;;;;;;7.68;2.65;;;10.00;69.50;;;;;;20678147;28;20117;-57
2022/03/31 01:19:34;;;;;;;6.78;2.85;;;10.00;69.90;;;;;;20679459;28;20077;-58
2022/03/31 01:29:37;;;;;;;5.03;1.98;;;10.10;69.00;;;;;;20678396;28;20058;-59
2022/03/31 01:39:44;;;;;;;6.18;2.30;;;10.20;67.70;;;;;;20677462;28;20511;-59
2022/03/31 01:49:52;;;;;;;5.78;2.22;;;10.30;67.10;;;;;;20676143;28;20097;-59
2022/03/31 01:59:54;;;;;;;6.28;3.05;;;10.30;67.00;;;;;;20674877;28;20121;-58
2022/03/31 02:09:57;;;;;;;6.93;2.50;;;10.00;67.70;;;;;;20674881;28;20047;-61
2022/03/31 02:20:03;;;;;;;6.50;2.85;;;9.90;68.30;;;;;;20673343;28;20506;-59
2022/03/31 02:30:08;;;;;;;5.03;2.22;;;9.70;68.80;;;;;;20672169;28;20066;-59
2022/03/31 02:40:11;;;;;;;3.92;2.25;;;9.70;68.40;;;;;;20672397;28;20050;-60
2022/03/31 02:50:17;;;;;;;4.93;2.33;;;9.70;67.90;;;;;;20673942;28;20105;-59
2022/03/31 03:00:20;;;;;;;8.80;2.58;;;9.70;67.90;;;;;;20672974;28;20506;-59
2022/03/31 03:10:22;;;;;;;4.95;2.25;;;9.70;68.00;;;;;;20668301;28;20462;-59
2022/03/31 03:20:27;;;;;;;5.22;2.45;;;9.60;67.80;;;;;;20669738;28;20050;-58
2022/03/31 03:30:31;;;;;;;6.40;2.30;;;9.50;67.80;;;;;;20669030;28;20054;-59
2022/03/31 03:40:33;;;;;;;6.22;2.50;;;9.50;67.10;;;;;;20667900;28;20046;-59
2022/03/31 03:50:38;;;;;;;6.18;2.47;;;9.50;66.50;;;;;;20668185;28;20046;-58
2022/03/31 04:00:40;;;;;;;5.35;2.90;;;9.50;66.40;;;;;;20670619;28;20411;-59
2022/03/31 04:10:44;;;;;;;4.25;1.85;;;9.40;66.20;;;;;;20667159;28;20050;-59
2022/03/31 04:20:47;;;;;;;7.53;2.45;;;9.50;65.00;;;;;;20666423;28;20053;-59
2022/03/31 04:30:51;;;;;;;9.57;2.50;;;9.50;64.20;;;;;;20679850;28;20050;-60
2022/03/31 04:40:53;;;;;;;6.63;2.90;;;9.60;63.00;;;;;;20680517;28;20058;-59
2022/03/31 04:50:54;;;;;;;12.52;3.55;;;9.50;62.90;;;;;;20679928;28;20082;-60
2022/03/31 05:00:56;;;;;;;7.22;3.22;;;9.50;62.70;;;;;;20679530;28;20132;-60
2022/03/31 05:10:58;;;;;;;7.13;2.78;;;9.70;61.40;;;;;;20678254;28;20050;-61
2022/03/31 05:21:01;;;;;;;6.63;3.08;;;9.80;59.50;;;;;;20678877;28;20081;-58
2022/03/31 05:31:03;;;;;;;7.22;3.25;;;9.80;58.40;;;;;;20677603;28;20076;-59
2022/03/31 05:41:04;;;;;;;12.60;4.25;;;9.90;57.60;;;;;;20677633;28;20057;-59
2022/03/31 05:51:07;;;;;;;8.65;4.35;;;9.80;56.90;;;;;;20677996;28;20579;-57
2022/03/31 06:01:09;;;;;;;7.60;4.45;;;9.80;56.50;;;;;;20674983;28;20097;-57
2022/03/31 06:11:11;;;;;;;5.88;3.88;;;9.60;56.70;;;;;;20674155;28;20050;-59
2022/03/31 06:21:13;;;;;;;7.75;4.43;;;9.60;56.60;;;;;;20674157;28;20104;-58
2022/03/31 06:31:15;;;;;;;8.90;4.43;;;9.60;56.70;;;;;;20672188;28;20145;-58
2022/03/31 06:41:19;;;;;;;7.93;4.60;;;9.60;56.10;;;;;;20672431;28;20447;-57
2022/03/31 06:51:21;;;;;;;7.43;4.20;;;9.60;56.10;;;;;;20669843;28;20058;-56
2022/03/31 07:01:23;;;;;;;11.05;3.78;;;9.70;55.60;;;;;;20669412;28;20046;-56
2022/03/31 07:11:25;;;;;;;9.20;4.18;;;9.90;53.30;;;;;;20668904;28;20137;-57
2022/03/31 07:21:27;;;;;;;8.75;3.78;;;10.00;51.50;;;;;;20668740;28;20514;-56
2022/03/31 07:31:29;;;;;;;11.05;3.90;;;10.10;50.70;;;;;;20668009;28;20562;-56
2022/03/31 07:41:31;;;;;;;11.85;3.78;;;10.20;50.60;;;;;;20667631;28;20058;-57
2022/03/31 07:51:32;;;;;;;5.03;3.40;;;10.60;49.30;;;;;;20667420;28;20050;-58
2022/03/31 08:01:34;;;;;;;6.13;3.25;;;11.00;48.50;;;;;;20667034;28;20617;-59
2022/03/31 08:11:36;;;;;;;9.70;4.30;;;10.90;47.90;;;;;;20666375;28;20073;-58
2022/03/31 08:21:38;;;;;;;7.85;4.00;;;11.10;46.40;;;;;;20666479;28;20050;-58
2022/03/31 08:31:40;;;;;;;8.05;4.00;;;11.50;45.20;;;;;;20665579;28;20062;-58
2022/03/31 08:41:44;;;;;;;7.25;4.05;;;11.70;45.00;;;;;;20665059;28;20077;-58
2022/03/31 08:51:46;;;;;;;9.02;4.53;;;11.80;44.60;;;;;;20665846;28;20050;-60
2022/03/31 09:01:48;;;;;;;9.73;4.40;;;12.00;44.30;;;;;;20664822;28;20443;-59
2022/03/31 09:11:50;;;;;;;6.88;3.55;;;12.20;44.40;;;;;;20671829;28;20047;-63
2022/03/31 09:21:57;;;;;;;7.80;3.83;;;12.70;43.70;;;;;;20679923;28;20050;-60
2022/03/31 09:32:10;;;;;;;12.90;3.78;;;12.70;44.60;;;;;;20608609;28;20061;-58
2022/03/31 09:42:14;;;;;;;9.35;3.95;;;13.20;42.50;;;;;;20648463;28;20205;-61
2022/03/31 09:52:16;;;;;;;10.20;4.07;;;12.50;43.70;;;;;;20662608;28;20054;-59
2022/03/31 10:02:21;;;;;;;6.90;3.90;;;12.30;45.40;;;;;;20666599;28;20503;-60
2022/03/31 10:12:35;;;;;;;5.95;3.45;;;12.40;45.40;;;;;;20626812;28;20054;-70
2022/03/31 10:33:04;;;;;;;5.80;3.70;;;13.50;46.20;;;;;;20673097;28;20510;-62
2022/03/31 10:43:07;;;;;;;7.85;3.42;;;13.10;47.20;;;;;;20672071;28;20412;-62
2022/03/31 10:53:09;;;;;;;9.05;3.25;;;13.30;46.90;;;;;;20670589;28;20065;-63
2022/03/31 11:03:15;;;;;;;10.25;3.30;;;13.70;45.50;;;;;;20669616;28;20070;-59
2022/03/31 11:13:18;;;;;;;7.72;3.80;;;13.70;44.60;;;;;;20669731;28;20076;-61
2022/03/31 11:23:21;;;;;;;9.85;3.00;;;13.80;44.20;;;;;;20669281;28;20054;-69
2022/03/31 11:33:34;;;;;;;6.78;2.95;;;14.00;43.10;;;;;;20669027;28;20398;-65
2022/03/31 11:43:36;;;;;;;6.35;3.67;;;14.10;41.40;;;;;;20668286;28;20046;-59
2022/03/31 11:53:47;;;;;;;11.30;4.47;;;14.30;41.40;;;;;;20667365;28;20057;-61
2022/03/31 12:03:49;;;;;;;12.30;3.47;;;14.10;41.90;;;;;;20666411;28;20072;-61
2022/03/31 12:13:57;;;;;;;9.20;3.75;;;13.80;42.20;;;;;;20667649;28;20129;-60
2022/03/31 12:24:03;;;;;;;7.33;4.07;;;13.40;43.60;;;;;;20667206;28;20054;-56
2022/03/31 12:34:05;;;;;;;7.00;3.47;;;13.60;43.90;;;;;;20665375;28;20065;-57
2022/03/31 12:44:16;;;;;;;7.32;3.28;;;13.60;44.00;;;;;;20667001;28;20058;-59
2022/03/31 12:54:29;;;;;;;6.70;3.47;;;13.40;44.40;;;;;;20679498;28;20529;-60
2022/03/31 13:04:31;;;;;;;6.68;3.65;;;14.20;43.40;;;;;;20678830;28;20054;-57
2022/03/31 13:14:36;;;;;;;7.88;3.30;;;15.00;42.20;;;;;;20678349;28;20050;-57
2022/03/31 13:24:40;;;;;;;5.25;2.65;;;15.10;41.90;;;;;;20677232;28;20058;-57
2022/03/31 13:34:46;;;;;;;8.30;2.85;;;15.20;42.20;;;;;;20676197;28;20046;-60
2022/03/31 13:44:49;;;;;;;7.90;3.15;;;15.20;42.60;;;;;;20675678;28;20086;-60
2022/03/31 13:54:52;;;;;;;4.45;3.10;;;;;;;;;;20675327;28;20046;-60
2022/03/31 14:04:53;;;;;;;5.20;2.22;;;16.20;40.00;;;;;;20673938;28;20409;-59
2022/03/31 14:14:56;;;;;;;7.70;2.67;;;15.10;42.10;;;;;;20673129;28;20157;-59
2022/03/31 14:24:59;;;;;;;6.93;2.85;;;15.40;41.80;;;;;;20671402;28;20069;-56
2022/03/31 14:35:01;;;;;;;;;;;15.40;41.20;;;;;;20673334;28;20051;-61
2022/03/31 14:45:03;;;;;;;;;;;15.70;40.50;;;;;;20658507;28;19922;-60
2022/03/31 14:55:05;;;;;;;;;;;15.90;40.00;;;;;;20666045;28;19925;-59
2022/03/31 15:05:07;;;;;;;;;;;15.90;40.00;;;;;;20667038;28;19973;-64
2022/03/31 15:15:09;;;;;;;;;;;15.60;40.20;;;;;;20666914;28;20004;-60
2022/03/31 15:25:10;;;;;;;4.37;2.30;;;15.30;42.20;;;;;;20665873;28;20449;-60
2022/03/31 15:35:12;;;;;;;3.75;2.17;;;15.00;50.10;;;;;;20665438;28;20050;-57
2022/03/31 15:45:14;;;;;;;6.78;2.15;;;14.80;50.60;;;;;;20666791;28;20047;-67
2022/03/31 15:55:16;;;;;;;3.95;1.50;;;14.80;50.80;;;;;;20666104;28;20058;-64
2022/03/31 16:05:19;;;;;;;1.95;0.90;;;15.40;50.10;;;;;;20663700;28;20062;-60
2022/03/31 16:15:23;;;;;;;2.28;1.30;;;14.90;50.90;;;;;;20662042;28;20173;-66
2022/03/31 16:25:25;;;;;;;5.53;1.67;;;14.90;52.30;;;;;;20676816;28;20069;-61
2022/03/31 16:35:27;;;;;;;2.22;1.30;;;14.50;53.70;;;;;;20682113;28;20410;-62
2022/03/31 16:45:29;;;;;;;5.05;1.17;;;14.30;54.90;;;;;;20676702;28;20133;-62
2022/03/31 16:55:31;;;;;;;1.83;1.17;;;14.30;55.70;;;;;;20688846;28;20126;-61
2022/03/31 17:05:35;;;;;;;3.08;1.30;;;14.20;56.00;;;;;;20675262;28;20484;-63
2022/03/31 17:15:37;;;;;;;2.40;1.30;;;14.10;54.90;;;;;;20675550;28;20046;-58
2022/03/31 17:25:39;;;;;;;3.53;1.85;;;13.90;56.80;;;;;;20676791;28;20061;-57
2022/03/31 17:35:42;;;;;;;4.85;1.52;;;14.00;57.30;;;;;;20672849;28;20050;-61
2022/03/31 17:45:44;;;;;;;3.97;1.65;;;13.80;58.50;;;;;;20676107;28;20392;-64
2022/03/31 17:55:46;;;;;;;3.10;1.73;;;13.90;59.10;;;;;;20675478;28;20046;-66
2022/03/31 18:05:47;;;;;;;2.28;1.38;;;13.40;61.10;;;;;;20692659;28;20050;-60
2022/03/31 18:15:49;;;;;;;4.53;1.23;;;13.80;59.30;;;;;;20673675;28;20050;-60
2022/03/31 18:25:51;;;;;;;3.53;1.38;;;13.20;59.90;;;;;;20673413;28;20072;-60
2022/03/31 18:35:53;;;;;;;0.98;0.63;;;13.00;58.80;;;;;;20673321;28;20121;-60
2022/03/31 18:45:56;;;;;;;2.88;1.42;;;12.90;58.40;;;;;;20670092;28;20050;-58
2022/03/31 18:55:57;;;;;;;1.75;0.68;;;12.70;58.50;;;;;;20671492;28;20050;-59
2022/03/31 19:06:57;;;;;;;7.65;1.10;;;12.50;59.10;;;;;;20669373;28;20109;-60
2022/03/31 19:16:22;;;;;;;1.92;1.08;;;12.40;59.80;;;;;;20669729;28;20050;-58
2022/03/31 19:26:24;;;;;;;2.25;1.30;;;12.40;59.90;;;;;;20667664;28;20086;-60
2022/03/31 19:36:26;;;;;;;3.20;1.25;;;12.30;60.50;;;;;;20667941;28;20047;-59
2022/03/31 19:46:28;;;;;;;4.05;1.23;;;12.30;61.40;;;;;;20666868;28;20093;-59
2022/03/31 19:56:33;;;;;;;2.15;1.10;;;12.30;61.30;;;;;;20667146;28;20498;-60
2022/03/31 20:06:35;;;;;;;4.38;1.70;;;12.20;61.20;;;;;;20666355;28;20053;-59
2022/03/31 20:16:39;;;;;;;2.30;1.30;;;12.20;61.20;;;;;;20666461;28;20446;-60
2022/03/31 20:26:41;;;;;;;2.40;1.17;;;12.20;61.70;;;;;;20666469;28;20522;-60
2022/03/31 20:36:44;;;;;;;2.40;1.13;;;12.10;62.00;;;;;;20665227;28;20129;-60
2022/03/31 20:46:46;;;;;;;3.13;2.00;;;12.10;62.40;;;;;;20665883;28;20050;-60
2022/03/31 20:56:52;;;;;;;6.30;1.67;;;12.00;63.80;;;;;;20666137;28;20050;-60
2022/03/31 21:06:54;;;;;;;2.90;1.20;;;11.70;67.80;;;;;;20670832;28;20054;-58
2022/03/31 21:16:56;;;;;;;2.47;1.00;;;11.10;70.30;;;;;;20681758;28;20180;-58
2022/03/31 21:28:11;;;;;;;1.67;0.68;;;11.00;70.30;;;;;;20679454;28;20050;-58
2022/03/31 21:38:24;;;;;;;1.60;0.40;;;10.80;70.00;;;;;;20197080;29;20071;-59
2022/03/31 21:48:25;;;;;;;1.80;0.40;;;10.70;70.60;;;;;;20194694;29;20474;-58
2022/03/31 21:58:27;;;;;;;2.13;0.30;;;10.50;71.00;;;;;;20194029;29;20055;-58
2022/03/31 22:18:51;;;;;;;1.67;0.40;;;;;;;;;;20675349;28;20051;-60
2022/03/31 22:28:53;;;;;;;1.58;0.45;;;10.80;70.30;;;;;;20673386;28;20050;-60
2022/03/31 22:38:54;;;;;;;1.25;0.40;;;10.90;70.90;;;;;;20689264;28;20047;-59
2022/03/31 22:48:57;;;;;;;2.20;0.70;;;10.00;72.60;;;;;;20671965;28;20065;-60
2022/03/31 22:58:59;;;;;;;0.57;0.30;;;9.80;72.90;;;;;;20670555;28;20050;-59
2022/03/31 23:09:02;;;;;;;2.42;0.28;;;9.90;73.20;;;;;;20670996;28;20491;-59
2022/03/31 23:19:04;;;;;;;1.08;0.40;;;9.70;74.00;;;;;;20670816;28;20050;-58
2022/03/31 23:29:07;;;;;;;1.52;0.50;;;9.60;73.80;;;;;;20683092;28;20495;-59
2022/03/31 23:39:09;;;;;;;1.13;0.40;;;9.60;73.70;;;;;;20668705;28;20046;-59
2022/03/31 23:49:10;;;;;;;0.75;0.40;;;9.50;74.00;;;;;;20667320;28;20153;-58
2022/03/31 23:59:12;;;;;;;0.50;0.30;;;9.60;74.20;;;;;;20667081;28;20073;-60
